createdAt,value
2023-01-06T00:01:09.032Z,6.00
2023-01-06T00:04:13.796Z,5.20
2023-01-06T00:07:17.185Z,6.40
2023-01-06T00:10:21.435Z,6.00
2023-01-06T00:13:24.951Z,5.60
2023-01-06T00:16:28.414Z,5.00
2023-01-06T00:19:33.089Z,6.00
2023-01-06T00:22:36.736Z,5.40
2023-01-06T00:25:40.002Z,6.80
2023-01-06T00:28:43.859Z,7.00
2023-01-06T00:31:47.232Z,5.60
2023-01-06T00:34:52.344Z,7.00
2023-01-06T00:37:55.700Z,6.00
2023-01-06T00:40:59.091Z,5.25
2023-01-06T00:44:03.519Z,6.00
2023-01-06T00:47:09.375Z,4.00
2023-01-06T00:50:14.127Z,6.60
2023-01-06T00:53:18.064Z,5.00
2023-01-06T00:56:21.660Z,6.00
2023-01-06T00:59:27.104Z,4.00
2023-01-06T01:02:31.056Z,6.00
2023-01-06T01:05:36.959Z,4.00
2023-01-06T01:08:40.309Z,4.20
2023-01-06T01:12:01.490Z,3.00
2023-01-06T01:15:05.451Z,4.00
2023-01-06T01:18:09.319Z,4.75
2023-01-06T01:21:13.920Z,3.40
2023-01-06T01:24:17.688Z,5.00
2023-01-06T01:27:21.095Z,6.60
2023-01-06T01:30:24.472Z,4.50
2023-01-06T01:33:29.755Z,6.00
2023-01-06T01:36:34.521Z,6.00
2023-01-06T01:39:38.145Z,4.00
2023-01-06T01:42:41.473Z,5.00
2023-01-06T01:45:49.268Z,7.00
2023-01-06T01:48:55.738Z,5.00
2023-01-06T01:52:01.058Z,4.00
2023-01-06T01:55:07.439Z,7.00
2023-01-06T01:58:14.937Z,4.00
2023-01-06T02:01:18.335Z,5.00
2023-01-06T02:04:25.701Z,4.60
2023-01-06T02:07:30.588Z,7.40
2023-01-06T02:10:33.899Z,5.80
2023-01-06T02:13:40.643Z,6.00
2023-01-06T02:16:57.531Z,5.00
2023-01-06T02:20:27.933Z,5.00
2023-01-06T02:24:07.563Z,6.00
2023-01-06T02:27:48.141Z,5.00
2023-01-06T02:31:31.728Z,5.00
2023-01-06T02:34:50.287Z,7.00
2023-01-06T02:38:06.108Z,8.00
2023-01-06T02:41:25.862Z,7.00
2023-01-06T02:44:33.636Z,7.00
2023-01-06T02:47:51.079Z,5.60
2023-01-06T02:51:02.262Z,6.00
2023-01-06T02:54:15.614Z,5.00
2023-01-06T02:57:27.153Z,6.00
2023-01-06T03:00:36.166Z,3.00
2023-01-06T03:03:42.714Z,5.00
2023-01-06T03:06:51.460Z,4.60
2023-01-06T03:09:56.764Z,6.00
2023-01-06T03:13:07.276Z,6.00
2023-01-06T03:16:11.688Z,5.00
2023-01-06T03:19:16.477Z,4.00
2023-01-06T03:22:24.670Z,5.00
2023-01-06T03:25:29.054Z,5.25
2023-01-06T03:28:34.347Z,8.60
2023-01-06T03:31:46.780Z,6.60
2023-01-06T03:35:05.784Z,6.00
2023-01-06T03:38:22.553Z,5.40
2023-01-06T03:41:47.983Z,5.60
2023-01-06T03:44:55.047Z,6.00
2023-01-06T03:48:06.384Z,5.75
2023-01-06T03:51:27.208Z,5.25
2023-01-06T03:54:42.090Z,7.00
2023-01-06T03:57:50.277Z,6.00
2023-01-06T04:00:53.823Z,4.80
2023-01-06T04:03:57.790Z,5.60
2023-01-06T04:07:04.706Z,6.80
2023-01-06T04:10:16.021Z,5.00
2023-01-06T04:13:19.623Z,5.00
2023-01-06T04:16:23.796Z,5.25
2023-01-06T04:19:27.160Z,8.00
2023-01-06T04:22:30.579Z,6.00
2023-01-06T04:25:36.159Z,7.80
2023-01-06T04:28:45.981Z,6.00
2023-01-06T04:31:50.518Z,8.20
2023-01-06T04:34:53.984Z,5.60
2023-01-06T04:37:57.533Z,5.60
2023-01-06T04:41:02.290Z,8.00
2023-01-06T04:44:06.355Z,7.00
2023-01-06T04:47:10.419Z,5.60
2023-01-06T04:50:13.843Z,6.00
2023-01-06T04:53:17.953Z,6.00
2023-01-06T04:56:23.289Z,9.00
2023-01-06T04:59:27.428Z,6.00
2023-01-06T05:02:30.715Z,4.25
2023-01-06T05:05:34.103Z,6.20
2023-01-06T05:08:38.569Z,9.40
2023-01-06T05:11:43.224Z,6.67
2023-01-06T05:14:46.574Z,6.00
2023-01-06T05:17:49.880Z,5.00
2023-01-06T05:20:54.067Z,4.80
2023-01-06T05:23:57.380Z,5.00
2023-01-06T05:27:02.033Z,5.00
2023-01-06T05:30:06.781Z,5.00
2023-01-06T05:33:10.259Z,7.00
2023-01-06T05:36:15.868Z,6.00
2023-01-06T05:39:19.653Z,6.00
2023-01-06T05:42:24.474Z,6.00
2023-01-06T05:45:27.844Z,5.80
2023-01-06T05:48:31.261Z,7.00
2023-01-06T05:51:34.508Z,7.60
2023-01-06T05:54:38.336Z,5.00
2023-01-06T05:57:43.053Z,6.00
2023-01-06T06:00:46.659Z,7.00
2023-01-06T06:03:50.242Z,8.00
2023-01-06T06:06:53.577Z,7.00
2023-01-06T06:09:57.072Z,7.00
2023-01-06T06:13:01.783Z,6.00
2023-01-06T06:16:06.816Z,7.00
2023-01-06T06:19:13.009Z,8.00
2023-01-06T06:22:16.433Z,7.80
2023-01-06T06:25:19.757Z,7.75
2023-01-06T06:28:24.692Z,7.00
2023-01-06T06:31:30.513Z,8.00
2023-01-06T06:34:33.800Z,8.00
2023-01-06T06:37:37.029Z,7.00
2023-01-06T06:40:40.297Z,5.40
2023-01-06T06:43:45.321Z,8.00
2023-01-06T06:46:48.629Z,6.00
2023-01-06T06:49:52.377Z,5.00
2023-01-06T06:52:56.650Z,6.40
2023-01-06T06:56:00.316Z,5.60
2023-01-06T06:59:05.175Z,6.00
2023-01-06T07:02:09.205Z,4.80
2023-01-06T07:05:12.652Z,6.00
2023-01-06T07:08:16.050Z,6.00
2023-01-06T07:11:20.134Z,7.00
2023-01-06T07:14:25.514Z,6.00
2023-01-06T07:17:29.257Z,7.60
2023-01-06T07:20:34.000Z,7.25
2023-01-06T07:23:37.308Z,8.00
2023-01-06T07:26:40.582Z,9.60
2023-01-06T07:29:45.284Z,9.00
2023-01-06T07:32:48.611Z,9.00
2023-01-06T07:35:54.410Z,10.00
2023-01-06T07:38:58.267Z,8.00
2023-01-06T07:42:01.791Z,8.00
2023-01-06T07:45:07.845Z,7.00
2023-01-06T07:48:11.175Z,7.00
2023-01-06T07:51:14.480Z,8.75
2023-01-06T07:54:17.860Z,9.00
2023-01-06T07:57:21.288Z,8.00
2023-01-06T08:00:26.192Z,8.60
2023-01-06T08:03:29.905Z,8.00
2023-01-06T08:06:33.138Z,8.00
2023-01-06T08:09:36.468Z,8.00
2023-01-06T08:12:39.749Z,8.60
2023-01-06T08:15:44.720Z,7.60
2023-01-06T08:18:48.005Z,8.00
2023-01-06T08:21:51.272Z,9.00
2023-01-06T08:24:54.651Z,7.00
2023-01-06T08:27:59.971Z,6.00
2023-01-06T08:31:05.436Z,6.00
2023-01-06T08:34:09.206Z,5.20
2023-01-06T08:37:12.480Z,7.00
2023-01-06T08:40:16.377Z,5.00
2023-01-06T08:43:19.958Z,6.75
2023-01-06T08:46:26.739Z,6.00
2023-01-06T08:49:30.035Z,7.00
2023-01-06T08:52:33.505Z,4.00
2023-01-06T08:55:39.700Z,4.00
2023-01-06T08:58:43.567Z,5.00
2023-01-06T09:01:48.336Z,4.00
2023-01-06T09:04:51.745Z,4.00
2023-01-06T09:07:55.572Z,4.20
2023-01-06T09:10:58.927Z,5.00
2023-01-06T09:14:02.603Z,6.00
2023-01-06T09:17:07.248Z,5.00
2023-01-06T09:20:11.750Z,6.00
2023-01-06T09:23:15.096Z,6.40
2023-01-06T09:26:21.814Z,6.00
2023-01-06T09:29:25.182Z,6.00
2023-01-06T09:32:29.815Z,4.60
2023-01-06T09:35:33.105Z,4.00
2023-01-06T09:38:36.495Z,4.20
2023-01-06T09:41:54.751Z,5.00
2023-01-06T09:45:02.802Z,5.00
2023-01-06T09:48:15.779Z,5.40
2023-01-06T09:51:24.421Z,6.40
2023-01-06T09:54:32.959Z,5.60
2023-01-06T09:57:40.695Z,4.80
2023-01-06T10:00:46.193Z,4.75
2023-01-06T10:03:50.918Z,5.00
2023-01-06T10:07:03.605Z,6.00
2023-01-06T10:10:23.737Z,4.00
2023-01-06T10:13:40.135Z,5.40
2023-01-06T10:17:03.473Z,3.20
2023-01-06T10:20:30.643Z,3.00
2023-01-06T10:24:07.414Z,4.25
2023-01-06T10:27:27.183Z,4.75
2023-01-06T10:30:40.266Z,4.80
2023-01-06T10:33:49.346Z,7.80
2023-01-06T10:37:02.757Z,5.00
2023-01-06T10:40:17.573Z,20.00
2023-01-06T10:43:22.731Z,6.60
2023-01-06T10:46:34.507Z,6.50
2023-01-06T10:49:38.492Z,21.00
2023-01-06T10:52:43.818Z,23.67
2023-01-06T10:55:51.047Z,15.00
2023-01-06T10:58:58.719Z,6.00
2023-01-06T11:02:02.345Z,13.00
2023-01-06T11:05:06.224Z,9.60
2023-01-06T11:08:15.380Z,9.40
2023-01-06T11:11:28.219Z,7.00
2023-01-06T11:14:34.121Z,14.00
2023-01-06T11:17:37.966Z,13.20
2023-01-06T11:20:41.471Z,14.00
2023-01-06T11:23:48.064Z,23.80
2023-01-06T11:26:56.524Z,18.00
2023-01-06T11:29:59.940Z,20.75
2023-01-06T11:33:03.370Z,12.50
2023-01-06T11:36:12.351Z,10.40
2023-01-06T11:39:26.299Z,10.00
2023-01-06T11:42:31.386Z,10.60
2023-01-06T11:45:44.877Z,11.00
2023-01-06T11:48:54.491Z,10.00
2023-01-06T11:52:02.793Z,8.00
2023-01-06T11:55:22.466Z,8.00
2023-01-06T11:58:47.201Z,7.00
2023-01-06T12:01:56.563Z,8.00
2023-01-06T12:05:03.362Z,7.60
2023-01-06T12:08:16.195Z,8.00
2023-01-06T12:11:28.788Z,9.67
2023-01-06T12:14:37.099Z,7.40
2023-01-06T12:17:45.959Z,8.00
2023-01-06T12:20:52.339Z,7.25
2023-01-06T12:23:58.556Z,8.40
2023-01-06T12:27:07.203Z,8.50
2023-01-06T12:30:18.908Z,7.75
2023-01-06T12:33:28.355Z,8.00
2023-01-06T12:36:39.333Z,9.80
2023-01-06T12:39:51.922Z,8.80
2023-01-06T12:43:05.116Z,9.40
2023-01-06T12:46:15.738Z,8.25
2023-01-06T12:49:26.958Z,8.60
2023-01-06T12:52:34.607Z,7.00
2023-01-06T12:55:46.140Z,6.20
2023-01-06T12:59:02.163Z,9.00
2023-01-06T13:02:17.753Z,7.60
2023-01-06T13:05:49.168Z,10.60
2023-01-06T13:09:12.332Z,9.80
2023-01-06T13:12:37.270Z,7.25
2023-01-06T13:15:46.040Z,8.60
2023-01-06T13:19:02.439Z,9.00
2023-01-06T13:22:10.273Z,10.00
2023-01-06T13:25:43.625Z,9.00
2023-01-06T13:28:57.987Z,8.00
2023-01-06T13:32:22.223Z,9.20
2023-01-06T13:35:46.096Z,8.00
2023-01-06T13:38:59.903Z,7.60
2023-01-06T13:42:07.489Z,8.80
2023-01-06T13:45:17.751Z,9.40
2023-01-06T13:48:27.407Z,9.00
2023-01-06T13:51:35.019Z,11.00
2023-01-06T13:55:01.812Z,9.50
2023-01-06T13:58:37.566Z,11.00
2023-01-06T14:01:41.226Z,8.25
2023-01-06T14:04:49.717Z,9.00
2023-01-06T14:07:55.615Z,9.00
2023-01-06T14:11:05.312Z,10.00
2023-01-06T14:14:25.177Z,15.00
2023-01-06T14:17:39.236Z,8.80
2023-01-06T14:20:44.473Z,11.00
2023-01-06T14:23:53.965Z,5.00
2023-01-06T14:27:01.238Z,9.00
2023-01-06T14:30:21.193Z,9.40
2023-01-06T14:33:36.254Z,8.00
2023-01-06T14:36:42.580Z,9.25
2023-01-06T14:39:51.068Z,10.00
2023-01-06T14:42:56.390Z,9.60
2023-01-06T14:46:07.649Z,9.00
2023-01-06T14:49:19.157Z,9.80
2023-01-06T14:52:32.720Z,9.40
2023-01-06T14:55:39.837Z,9.00
2023-01-06T14:58:44.505Z,8.80
2023-01-06T15:01:58.986Z,14.00
2023-01-06T15:05:02.980Z,15.00
2023-01-06T15:08:16.651Z,14.00
2023-01-06T15:11:25.154Z,11.67
2023-01-06T15:14:34.467Z,12.00
2023-01-06T15:17:37.898Z,14.00
2023-01-06T15:20:43.900Z,13.00
2023-01-06T15:23:51.064Z,18.00
2023-01-06T15:26:56.662Z,16.60
2023-01-06T15:30:00.383Z,17.40
2023-01-06T15:33:05.699Z,19.00
2023-01-06T15:36:10.160Z,15.80
2023-01-06T15:39:17.691Z,17.40
2023-01-06T15:42:23.902Z,16.00
2023-01-06T15:45:32.503Z,19.40
2023-01-06T15:48:41.676Z,18.00
2023-01-06T15:51:56.036Z,17.00
2023-01-06T15:55:03.702Z,18.50
2023-01-06T15:58:10.946Z,20.00
2023-01-06T16:01:16.285Z,18.00
2023-01-06T16:04:20.064Z,19.50
2023-01-06T16:07:33.951Z,21.00
2023-01-06T16:10:39.780Z,20.33
2023-01-06T16:13:43.815Z,22.20
2023-01-06T16:16:47.389Z,24.00
2023-01-06T16:19:59.960Z,23.00
2023-01-06T16:23:03.468Z,23.40
2023-01-06T16:26:11.847Z,25.00
2023-01-06T16:29:28.976Z,22.00
2023-01-06T16:32:39.107Z,22.00
2023-01-06T16:35:42.855Z,23.00
2023-01-06T16:38:46.361Z,23.00
2023-01-06T16:45:27.027Z,26.60
2023-01-06T16:48:30.332Z,25.00
2023-01-06T16:51:34.840Z,26.60
2023-01-06T16:54:38.118Z,27.40
2023-01-06T16:57:41.499Z,26.00
2023-01-06T17:00:51.628Z,26.40
2023-01-06T17:03:59.443Z,27.00
2023-01-06T17:07:03.699Z,28.00
2023-01-06T17:10:14.466Z,27.00
2023-01-06T17:13:36.747Z,27.00
2023-01-06T17:16:43.779Z,26.20
2023-01-06T17:19:47.413Z,26.00
2023-01-06T17:22:51.905Z,24.80
2023-01-06T17:26:01.668Z,27.40
2023-01-06T17:29:13.492Z,27.00
2023-01-06T17:32:22.334Z,24.00
2023-01-06T17:35:28.377Z,24.00
2023-01-06T17:38:32.193Z,24.75
2023-01-06T17:41:36.013Z,24.40
2023-01-06T17:44:41.257Z,23.00
2023-01-06T17:47:50.188Z,22.00
2023-01-06T17:50:55.323Z,23.00
2023-01-06T17:54:17.411Z,22.00
2023-01-06T17:57:21.011Z,23.00
2023-01-06T18:00:28.996Z,24.00
2023-01-06T18:03:35.891Z,24.00
2023-01-06T18:06:41.365Z,23.00
2023-01-06T18:09:46.956Z,25.00
2023-01-06T18:12:51.382Z,24.00
2023-01-06T18:15:58.077Z,27.00
2023-01-06T18:19:25.299Z,25.20
2023-01-06T18:22:33.848Z,23.50
2023-01-06T18:25:37.347Z,24.00
2023-01-06T18:28:40.593Z,24.00
2023-01-06T18:31:45.441Z,24.20
2023-01-06T18:34:51.493Z,27.00
2023-01-06T18:37:55.703Z,28.00
2023-01-06T18:40:59.196Z,26.00
2023-01-06T18:44:06.035Z,27.00
2023-01-06T18:47:15.709Z,24.00
2023-01-06T18:50:30.332Z,23.00
2023-01-06T18:53:38.911Z,22.00
2023-01-06T18:56:42.244Z,22.80
2023-01-06T18:59:45.534Z,21.00
2023-01-06T19:02:52.910Z,20.60
2023-01-06T19:06:04.880Z,25.00
2023-01-06T19:09:18.956Z,28.40
2023-01-06T19:12:29.608Z,27.00
2023-01-06T19:15:33.584Z,25.00
2023-01-06T19:18:37.311Z,26.00
2023-01-06T19:21:42.331Z,24.00
2023-01-06T19:24:50.142Z,25.75
2023-01-06T19:27:56.641Z,25.00
2023-01-06T19:31:00.665Z,23.80
2023-01-06T19:34:06.211Z,23.00
2023-01-06T19:37:16.371Z,24.00
2023-01-06T19:40:28.153Z,22.00
2023-01-06T19:43:34.000Z,24.00
2023-01-06T19:46:40.722Z,22.00
2023-01-06T19:49:46.618Z,22.60
2023-01-06T19:52:56.664Z,23.00
2023-01-06T19:56:09.854Z,23.00
2023-01-06T19:59:18.309Z,22.00
2023-01-06T20:02:29.188Z,23.20
2023-01-06T20:05:33.018Z,22.00
2023-01-06T20:08:37.703Z,22.75
2023-01-06T20:11:42.092Z,24.00
2023-01-06T20:14:45.382Z,22.00
2023-01-06T20:17:48.891Z,22.00
2023-01-06T20:20:52.149Z,23.80
2023-01-06T20:23:58.604Z,23.00
2023-01-06T20:27:01.930Z,22.00
2023-01-06T20:30:06.508Z,23.00
2023-01-06T20:33:09.931Z,22.00
2023-01-06T20:36:17.117Z,24.60
2023-01-06T20:39:22.092Z,22.80
2023-01-06T20:42:25.502Z,23.40
2023-01-06T20:45:28.879Z,23.00
2023-01-06T20:48:32.732Z,23.00
2023-01-06T20:51:36.079Z,24.00
2023-01-06T20:54:40.857Z,25.00
2023-01-06T20:57:44.139Z,23.00
2023-01-06T21:00:47.876Z,24.00
2023-01-06T21:03:51.168Z,24.80
2023-01-06T21:06:54.954Z,22.60
2023-01-06T21:09:59.577Z,23.40
2023-01-06T21:13:02.898Z,24.00
2023-01-06T21:16:06.787Z,24.50
2023-01-06T21:19:10.305Z,26.00
2023-01-06T21:22:13.512Z,26.00
2023-01-06T21:25:19.916Z,25.60
2023-01-06T21:28:23.179Z,28.00
2023-01-06T21:31:26.421Z,26.25
2023-01-06T21:34:29.724Z,27.60
2023-01-06T21:37:33.629Z,28.00
2023-01-06T21:40:38.324Z,30.00
2023-01-06T21:43:40.686Z,30.00
2023-01-06T21:46:43.928Z,31.00
2023-01-06T21:49:47.527Z,33.00
2023-01-06T21:52:51.999Z,31.40
2023-01-06T21:55:56.844Z,33.00
2023-01-06T21:59:00.163Z,32.40
2023-01-06T22:02:03.955Z,32.00
2023-01-06T22:05:08.145Z,31.00
2023-01-06T22:08:12.367Z,33.00
2023-01-06T22:11:17.159Z,32.33
2023-01-06T22:14:20.731Z,32.00
2023-01-06T22:17:24.966Z,33.00
2023-01-06T22:20:31.609Z,33.00
2023-01-06T22:23:35.721Z,31.00
2023-01-06T22:26:40.469Z,31.00
2023-01-06T22:29:43.858Z,30.40
2023-01-06T22:32:48.512Z,31.00
2023-01-06T22:35:51.823Z,28.20
2023-01-06T22:38:55.270Z,30.00
2023-01-06T22:42:00.339Z,28.00
2023-01-06T22:45:03.871Z,29.00
2023-01-06T22:48:07.331Z,28.80
2023-01-06T22:51:11.086Z,30.50
2023-01-06T22:54:14.373Z,28.00
2023-01-06T22:57:19.180Z,28.00
2023-01-06T23:00:22.599Z,27.00
2023-01-06T23:03:26.159Z,26.00
2023-01-06T23:06:29.471Z,23.20
2023-01-06T23:09:33.297Z,23.00
2023-01-06T23:12:38.749Z,24.00
2023-01-06T23:15:43.814Z,23.00
2023-01-06T23:18:48.680Z,23.60
2023-01-06T23:21:52.491Z,22.00
2023-01-06T23:24:55.784Z,21.00
2023-01-06T23:28:01.069Z,20.00
2023-01-06T23:31:06.118Z,19.00
2023-01-06T23:34:12.228Z,19.40
2023-01-06T23:37:15.541Z,19.00
2023-01-06T23:40:18.881Z,19.00
2023-01-06T23:43:24.747Z,16.00
2023-01-06T23:46:31.742Z,17.67
2023-01-06T23:49:35.079Z,17.60
2023-01-06T23:52:38.560Z,15.20
2023-01-06T23:55:41.951Z,17.00
2023-01-06T23:58:48.636Z,19.00
